Terminal Aerodrome Forecast
Issued by NWS Cleveland, OH

Home | Current Version | Previous Version | Text Only | Print | Product List | Glossary Off
Versions: 1 2 3 4 5 6 7 8 9 10 11 12 13 14 15 16 17

247
FTUS41 KCLE 211937 AAA
TAFMFD
TAF AMD
KMFD 211937Z 2120/2218 23012G18KT P6SM SCT040 BKN250
     FM212300 23011KT 3SM -TSRA OVC025CB
      TEMPO 2123/2201 VRB25G35KT 1SM -TSRA OVC010CB
     FM220200 23005KT P6SM SCT040 BKN080
      TEMPO 2209/2212 5SM BR
     FM221500 24012KT P6SM VCSH BKN040=

USA.gov is the U.S. government's official web portal to all federal, state and local government web resources and services.